sensor_id;sensor_type;location;lat;lon;timestamp;temperature;humidity
70421;SHT31;57848;51.938;15.520;2022-07-21T00:00:18;26.17;41.47
70421;SHT31;57848;51.938;15.520;2022-07-21T00:02:43;26.09;41.64
70421;SHT31;57848;51.938;15.520;2022-07-21T00:05:09;26.03;41.66
70421;SHT31;57848;51.938;15.520;2022-07-21T00:07:34;26.06;41.71
70421;SHT31;57848;51.938;15.520;2022-07-21T00:09:59;25.99;41.79
70421;SHT31;57848;51.938;15.520;2022-07-21T00:12:25;25.98;41.68
70421;SHT31;57848;51.938;15.520;2022-07-21T00:14:50;25.93;41.95
70421;SHT31;57848;51.938;15.520;2022-07-21T00:17:16;25.93;41.79
70421;SHT31;57848;51.938;15.520;2022-07-21T00:19:41;25.92;41.84
70421;SHT31;57848;51.938;15.520;2022-07-21T00:22:06;25.86;41.98
70421;SHT31;57848;51.938;15.520;2022-07-21T00:24:32;25.81;42.08
70421;SHT31;57848;51.938;15.520;2022-07-21T00:26:57;25.75;42.24
70421;SHT31;57848;51.938;15.520;2022-07-21T00:29:22;25.74;42.37
70421;SHT31;57848;51.938;15.520;2022-07-21T00:31:48;25.72;42.32
70421;SHT31;57848;51.938;15.520;2022-07-21T00:34:13;25.71;42.17
70421;SHT31;57848;51.938;15.520;2022-07-21T00:36:38;25.68;42.44
70421;SHT31;57848;51.938;15.520;2022-07-21T00:39:04;25.64;42.51
70421;SHT31;57848;51.938;15.520;2022-07-21T00:41:29;25.59;42.65
70421;SHT31;57848;51.938;15.520;2022-07-21T00:43:54;25.58;42.74
70421;SHT31;57848;51.938;15.520;2022-07-21T00:46:20;25.52;42.88
70421;SHT31;57848;51.938;15.520;2022-07-21T00:48:46;25.47;43.15
70421;SHT31;57848;51.938;15.520;2022-07-21T00:51:11;25.42;43.64
70421;SHT31;57848;51.938;15.520;2022-07-21T00:53:36;25.35;43.38
70421;SHT31;57848;51.938;15.520;2022-07-21T00:56:02;25.37;43.26
70421;SHT31;57848;51.938;15.520;2022-07-21T00:58:28;25.34;43.53
70421;SHT31;57848;51.938;15.520;2022-07-21T01:00:53;25.33;43.45
70421;SHT31;57848;51.938;15.520;2022-07-21T01:03:19;25.23;43.62
70421;SHT31;57848;51.938;15.520;2022-07-21T01:05:44;25.18;43.82
70421;SHT31;57848;51.938;15.520;2022-07-21T01:08:10;25.13;43.77
70421;SHT31;57848;51.938;15.520;2022-07-21T01:10:36;25.10;44.07
70421;SHT31;57848;51.938;15.520;2022-07-21T01:13:01;25.03;44.25
70421;SHT31;57848;51.938;15.520;2022-07-21T01:15:28;24.96;44.53
70421;SHT31;57848;51.938;15.520;2022-07-21T01:17:53;24.96;44.40
70421;SHT31;57848;51.938;15.520;2022-07-21T01:20:20;24.89;44.59
70421;SHT31;57848;51.938;15.520;2022-07-21T01:22:49;24.87;44.49
70421;SHT31;57848;51.938;15.520;2022-07-21T01:25:15;24.86;44.49
70421;SHT31;57848;51.938;15.520;2022-07-21T01:27:41;24.86;44.55
70421;SHT31;57848;51.938;15.520;2022-07-21T01:30:08;24.80;44.52
70421;SHT31;57848;51.938;15.520;2022-07-21T01:32:37;24.84;44.66
70421;SHT31;57848;51.938;15.520;2022-07-21T01:35:04;24.86;44.55
70421;SHT31;57848;51.938;15.520;2022-07-21T01:37:31;24.77;44.69
70421;SHT31;57848;51.938;15.520;2022-07-21T01:39:56;24.76;44.83
70421;SHT31;57848;51.938;15.520;2022-07-21T01:42:40;24.72;44.79
70421;SHT31;57848;51.938;15.520;2022-07-21T01:45:06;24.68;45.03
70421;SHT31;57848;51.938;15.520;2022-07-21T01:47:33;24.60;45.10
70421;SHT31;57848;51.938;15.520;2022-07-21T01:49:58;24.59;45.12
70421;SHT31;57848;51.938;15.520;2022-07-21T01:52:23;24.55;45.44
70421;SHT31;57848;51.938;15.520;2022-07-21T01:54:49;24.58;45.21
70421;SHT31;57848;51.938;15.520;2022-07-21T01:57:15;24.53;45.32
70421;SHT31;57848;51.938;15.520;2022-07-21T01:59:40;24.55;45.15
70421;SHT31;57848;51.938;15.520;2022-07-21T02:02:06;24.53;45.15
70421;SHT31;57848;51.938;15.520;2022-07-21T02:04:31;24.56;45.01
70421;SHT31;57848;51.938;15.520;2022-07-21T02:07:00;24.45;45.28
70421;SHT31;57848;51.938;15.520;2022-07-21T02:09:25;24.49;45.22
70421;SHT31;57848;51.938;15.520;2022-07-21T02:11:50;24.47;45.35
70421;SHT31;57848;51.938;15.520;2022-07-21T02:14:16;24.38;45.51
70421;SHT31;57848;51.938;15.520;2022-07-21T02:16:41;24.35;45.64
70421;SHT31;57848;51.938;15.520;2022-07-21T02:19:08;24.36;45.55
70421;SHT31;57848;51.938;15.520;2022-07-21T02:21:34;24.31;45.77
70421;SHT31;57848;51.938;15.520;2022-07-21T02:23:59;24.28;45.93
70421;SHT31;57848;51.938;15.520;2022-07-21T02:26:24;24.25;45.99
70421;SHT31;57848;51.938;15.520;2022-07-21T02:28:50;24.19;46.09
70421;SHT31;57848;51.938;15.520;2022-07-21T02:31:15;24.11;46.30
70421;SHT31;57848;51.938;15.520;2022-07-21T02:33:40;24.08;46.40
70421;SHT31;57848;51.938;15.520;2022-07-21T02:36:07;24.01;46.56
70421;SHT31;57848;51.938;15.520;2022-07-21T02:38:32;23.97;46.54
70421;SHT31;57848;51.938;15.520;2022-07-21T02:40:57;23.97;46.65
70421;SHT31;57848;51.938;15.520;2022-07-21T02:43:23;23.93;46.81
70421;SHT31;57848;51.938;15.520;2022-07-21T02:45:48;23.93;46.71
70421;SHT31;57848;51.938;15.520;2022-07-21T02:48:13;23.93;46.73
70421;SHT31;57848;51.938;15.520;2022-07-21T02:50:42;23.84;47.00
70421;SHT31;57848;51.938;15.520;2022-07-21T02:53:16;23.81;47.02
70421;SHT31;57848;51.938;15.520;2022-07-21T02:55:49;23.75;47.23
70421;SHT31;57848;51.938;15.520;2022-07-21T02:58:21;23.70;47.39
70421;SHT31;57848;51.938;15.520;2022-07-21T03:00:58;23.67;47.48
70421;SHT31;57848;51.938;15.520;2022-07-21T03:03:26;23.66;47.56
70421;SHT31;57848;51.938;15.520;2022-07-21T03:05:52;23.63;47.62
70421;SHT31;57848;51.938;15.520;2022-07-21T03:08:20;23.61;47.56
70421;SHT31;57848;51.938;15.520;2022-07-21T03:10:47;23.57;47.70
70421;SHT31;57848;51.938;15.520;2022-07-21T03:13:12;23.64;47.65
70421;SHT31;57848;51.938;15.520;2022-07-21T03:15:38;23.56;47.75
70421;SHT31;57848;51.938;15.520;2022-07-21T03:18:03;23.54;47.79
70421;SHT31;57848;51.938;15.520;2022-07-21T03:20:31;23.56;47.84
70421;SHT31;57848;51.938;15.520;2022-07-21T03:22:57;23.61;47.70
70421;SHT31;57848;51.938;15.520;2022-07-21T03:25:23;23.51;47.92
70421;SHT31;57848;51.938;15.520;2022-07-21T03:27:48;23.56;47.89
70421;SHT31;57848;51.938;15.520;2022-07-21T03:30:15;23.50;48.19
70421;SHT31;57848;51.938;15.520;2022-07-21T03:32:41;23.42;48.44
70421;SHT31;57848;51.938;15.520;2022-07-21T03:35:08;23.42;48.45
70421;SHT31;57848;51.938;15.520;2022-07-21T03:37:49;23.46;48.42
70421;SHT31;57848;51.938;15.520;2022-07-21T03:40:17;23.46;48.48
70421;SHT31;57848;51.938;15.520;2022-07-21T03:42:43;23.33;48.94
70421;SHT31;57848;51.938;15.520;2022-07-21T03:45:10;23.32;48.86
70421;SHT31;57848;51.938;15.520;2022-07-21T03:47:36;23.36;48.92
70421;SHT31;57848;51.938;15.520;2022-07-21T03:50:02;23.29;49.12
70421;SHT31;57848;51.938;15.520;2022-07-21T03:52:28;23.23;49.28
70421;SHT31;57848;51.938;15.520;2022-07-21T03:54:53;23.19;49.39
70421;SHT31;57848;51.938;15.520;2022-07-21T03:57:35;23.18;49.60
70421;SHT31;57848;51.938;15.520;2022-07-21T04:00:00;23.13;49.80
70421;SHT31;57848;51.938;15.520;2022-07-21T04:02:26;23.16;49.52
70421;SHT31;57848;51.938;15.520;2022-07-21T04:04:51;23.18;49.54
70421;SHT31;57848;51.938;15.520;2022-07-21T04:07:16;23.18;49.57
70421;SHT31;57848;51.938;15.520;2022-07-21T04:09:42;23.18;49.44
70421;SHT31;57848;51.938;15.520;2022-07-21T04:12:07;23.24;49.27
70421;SHT31;57848;51.938;15.520;2022-07-21T04:14:33;23.26;49.21
70421;SHT31;57848;51.938;15.520;2022-07-21T04:16:58;23.32;49.19
70421;SHT31;57848;51.938;15.520;2022-07-21T04:19:23;23.34;49.36
70421;SHT31;57848;51.938;15.520;2022-07-21T04:21:48;23.39;49.21
70421;SHT31;57848;51.938;15.520;2022-07-21T04:24:14;23.38;49.25
70421;SHT31;57848;51.938;15.520;2022-07-21T04:26:39;23.38;49.24
70421;SHT31;57848;51.938;15.520;2022-07-21T04:29:04;23.40;49.25
70421;SHT31;57848;51.938;15.520;2022-07-21T04:31:30;23.40;49.27
70421;SHT31;57848;51.938;15.520;2022-07-21T04:33:55;23.49;49.02
70421;SHT31;57848;51.938;15.520;2022-07-21T04:36:20;23.43;49.25
70421;SHT31;57848;51.938;15.520;2022-07-21T04:38:46;23.50;49.31
70421;SHT31;57848;51.938;15.520;2022-07-21T04:41:13;23.57;48.96
70421;SHT31;57848;51.938;15.520;2022-07-21T04:43:38;23.67;48.77
70421;SHT31;57848;51.938;15.520;2022-07-21T04:46:04;23.74;48.83
70421;SHT31;57848;51.938;15.520;2022-07-21T04:48:29;23.85;48.76
70421;SHT31;57848;51.938;15.520;2022-07-21T04:50:54;23.85;48.67
70421;SHT31;57848;51.938;15.520;2022-07-21T04:53:20;23.94;48.34
70421;SHT31;57848;51.938;15.520;2022-07-21T04:55:45;24.02;48.11
70421;SHT31;57848;51.938;15.520;2022-07-21T04:58:11;24.14;47.82
70421;SHT31;57848;51.938;15.520;2022-07-21T05:00:36;24.29;47.65
70421;SHT31;57848;51.938;15.520;2022-07-21T05:03:01;24.43;47.03
70421;SHT31;57848;51.938;15.520;2022-07-21T05:05:27;24.66;46.50
70421;SHT31;57848;51.938;15.520;2022-07-21T05:07:52;24.65;46.75
70421;SHT31;57848;51.938;15.520;2022-07-21T05:10:18;24.70;46.67
70421;SHT31;57848;51.938;15.520;2022-07-21T05:12:43;24.72;46.91
70421;SHT31;57848;51.938;15.520;2022-07-21T05:15:09;24.79;46.58
70421;SHT31;57848;51.938;15.520;2022-07-21T05:17:37;24.82;46.52
70421;SHT31;57848;51.938;15.520;2022-07-21T05:20:03;24.79;46.78
70421;SHT31;57848;51.938;15.520;2022-07-21T05:22:29;24.82;46.67
70421;SHT31;57848;51.938;15.520;2022-07-21T05:24:54;24.93;46.30
70421;SHT31;57848;51.938;15.520;2022-07-21T05:27:20;24.97;46.46
70421;SHT31;57848;51.938;15.520;2022-07-21T05:29:45;25.10;46.44
70421;SHT31;57848;51.938;15.520;2022-07-21T05:32:10;25.18;46.01
70421;SHT31;57848;51.938;15.520;2022-07-21T05:34:36;25.23;46.51
70421;SHT31;57848;51.938;15.520;2022-07-21T05:37:01;25.28;46.01
70421;SHT31;57848;51.938;15.520;2022-07-21T05:39:26;25.35;45.44
70421;SHT31;57848;51.938;15.520;2022-07-21T05:41:52;25.42;45.45
70421;SHT31;57848;51.938;15.520;2022-07-21T05:44:17;25.45;45.50
70421;SHT31;57848;51.938;15.520;2022-07-21T05:46:42;25.52;45.13
70421;SHT31;57848;51.938;15.520;2022-07-21T05:49:08;25.65;45.19
70421;SHT31;57848;51.938;15.520;2022-07-21T05:51:33;25.68;45.27
70421;SHT31;57848;51.938;15.520;2022-07-21T05:53:58;25.81;45.16
70421;SHT31;57848;51.938;15.520;2022-07-21T05:56:24;25.92;44.46
70421;SHT31;57848;51.938;15.520;2022-07-21T05:58:49;25.93;44.81
70421;SHT31;57848;51.938;15.520;2022-07-21T06:01:14;26.03;44.71
70421;SHT31;57848;51.938;15.520;2022-07-21T06:03:46;26.08;44.34
70421;SHT31;57848;51.938;15.520;2022-07-21T06:06:13;26.13;44.58
70421;SHT31;57848;51.938;15.520;2022-07-21T06:08:40;26.30;44.23
70421;SHT31;57848;51.938;15.520;2022-07-21T06:11:12;26.35;44.14
70421;SHT31;57848;51.938;15.520;2022-07-21T06:13:38;26.44;43.61
70421;SHT31;57848;51.938;15.520;2022-07-21T06:16:04;26.56;43.30
70421;SHT31;57848;51.938;15.520;2022-07-21T06:18:30;26.64;42.75
70421;SHT31;57848;51.938;15.520;2022-07-21T06:20:55;26.83;42.32
70421;SHT31;57848;51.938;15.520;2022-07-21T06:23:21;26.94;42.26
70421;SHT31;57848;51.938;15.520;2022-07-21T06:25:47;27.04;42.12
70421;SHT31;57848;51.938;15.520;2022-07-21T06:28:12;27.11;41.40
70421;SHT31;57848;51.938;15.520;2022-07-21T06:30:39;27.15;41.13
70421;SHT31;57848;51.938;15.520;2022-07-21T06:33:04;27.24;41.14
70421;SHT31;57848;51.938;15.520;2022-07-21T06:35:30;27.35;41.04
70421;SHT31;57848;51.938;15.520;2022-07-21T06:37:55;27.43;40.75
70421;SHT31;57848;51.938;15.520;2022-07-21T06:40:21;27.45;40.51
70421;SHT31;57848;51.938;15.520;2022-07-21T06:42:46;27.53;40.82
70421;SHT31;57848;51.938;15.520;2022-07-21T06:45:11;27.56;40.67
70421;SHT31;57848;51.938;15.520;2022-07-21T06:47:37;27.59;40.69
70421;SHT31;57848;51.938;15.520;2022-07-21T06:50:03;27.56;41.14
70421;SHT31;57848;51.938;15.520;2022-07-21T06:52:29;27.56;41.91
70421;SHT31;57848;51.938;15.520;2022-07-21T06:54:55;27.59;41.92
70421;SHT31;57848;51.938;15.520;2022-07-21T06:57:20;27.63;41.70
70421;SHT31;57848;51.938;15.520;2022-07-21T06:59:46;27.70;41.58
70421;SHT31;57848;51.938;15.520;2022-07-21T07:02:11;27.73;42.04
70421;SHT31;57848;51.938;15.520;2022-07-21T07:04:36;27.86;41.68
70421;SHT31;57848;51.938;15.520;2022-07-21T07:07:02;27.90;41.48
70421;SHT31;57848;51.938;15.520;2022-07-21T07:09:27;27.94;41.61
70421;SHT31;57848;51.938;15.520;2022-07-21T07:11:53;27.97;41.76
70421;SHT31;57848;51.938;15.520;2022-07-21T07:14:19;28.01;41.74
70421;SHT31;57848;51.938;15.520;2022-07-21T07:16:46;28.04;41.70
70421;SHT31;57848;51.938;15.520;2022-07-21T07:19:11;28.07;42.26
70421;SHT31;57848;51.938;15.520;2022-07-21T07:21:36;28.15;41.25
70421;SHT31;57848;51.938;15.520;2022-07-21T07:24:02;28.15;40.98
70421;SHT31;57848;51.938;15.520;2022-07-21T07:26:28;28.29;41.39
70421;SHT31;57848;51.938;15.520;2022-07-21T07:28:53;28.33;40.35
70421;SHT31;57848;51.938;15.520;2022-07-21T07:31:19;28.37;40.86
70421;SHT31;57848;51.938;15.520;2022-07-21T07:33:44;28.48;40.18
70421;SHT31;57848;51.938;15.520;2022-07-21T07:36:09;28.48;40.19
70421;SHT31;57848;51.938;15.520;2022-07-21T07:38:38;28.58;40.91
70421;SHT31;57848;51.938;15.520;2022-07-21T07:41:03;28.68;40.98
70421;SHT31;57848;51.938;15.520;2022-07-21T07:43:29;28.74;40.84
70421;SHT31;57848;51.938;15.520;2022-07-21T07:45:54;28.78;40.66
70421;SHT31;57848;51.938;15.520;2022-07-21T07:48:19;28.79;40.87
70421;SHT31;57848;51.938;15.520;2022-07-21T07:50:45;28.89;41.63
70421;SHT31;57848;51.938;15.520;2022-07-21T07:53:10;28.95;40.99
70421;SHT31;57848;51.938;15.520;2022-07-21T07:55:35;29.03;40.14
70421;SHT31;57848;51.938;15.520;2022-07-21T07:58:01;29.07;39.63
70421;SHT31;57848;51.938;15.520;2022-07-21T08:00:27;29.12;40.24
70421;SHT31;57848;51.938;15.520;2022-07-21T08:02:52;29.07;39.78
70421;SHT31;57848;51.938;15.520;2022-07-21T08:05:17;29.13;39.90
70421;SHT31;57848;51.938;15.520;2022-07-21T08:07:43;29.26;40.11
70421;SHT31;57848;51.938;15.520;2022-07-21T08:10:09;29.30;40.30
70421;SHT31;57848;51.938;15.520;2022-07-21T08:12:37;29.35;39.65
70421;SHT31;57848;51.938;15.520;2022-07-21T08:15:03;29.27;38.84
70421;SHT31;57848;51.938;15.520;2022-07-21T08:17:29;29.30;39.57
70421;SHT31;57848;51.938;15.520;2022-07-21T08:19:54;29.29;39.95
70421;SHT31;57848;51.938;15.520;2022-07-21T08:22:20;29.37;40.23
70421;SHT31;57848;51.938;15.520;2022-07-21T08:24:45;29.44;40.60
70421;SHT31;57848;51.938;15.520;2022-07-21T08:27:10;29.50;39.89
70421;SHT31;57848;51.938;15.520;2022-07-21T08:29:36;29.44;39.86
70421;SHT31;57848;51.938;15.520;2022-07-21T08:32:01;29.50;39.85
70421;SHT31;57848;51.938;15.520;2022-07-21T08:34:27;29.47;39.89
70421;SHT31;57848;51.938;15.520;2022-07-21T08:36:53;29.54;40.37
70421;SHT31;57848;51.938;15.520;2022-07-21T08:39:18;29.63;40.39
70421;SHT31;57848;51.938;15.520;2022-07-21T08:41:44;29.67;39.92
70421;SHT31;57848;51.938;15.520;2022-07-21T08:44:09;29.80;39.95
70421;SHT31;57848;51.938;15.520;2022-07-21T08:46:37;29.88;40.65
70421;SHT31;57848;51.938;15.520;2022-07-21T08:49:04;30.05;39.57
70421;SHT31;57848;51.938;15.520;2022-07-21T08:51:33;30.32;39.17
70421;SHT31;57848;51.938;15.520;2022-07-21T08:54:00;30.13;38.85
70421;SHT31;57848;51.938;15.520;2022-07-21T08:56:25;30.22;39.59
70421;SHT31;57848;51.938;15.520;2022-07-21T08:58:51;30.29;38.73
70421;SHT31;57848;51.938;15.520;2022-07-21T09:01:16;30.49;38.71
70421;SHT31;57848;51.938;15.520;2022-07-21T09:03:41;30.57;39.23
70421;SHT31;57848;51.938;15.520;2022-07-21T09:06:12;30.64;38.28
70421;SHT31;57848;51.938;15.520;2022-07-21T09:08:46;30.57;37.62
70421;SHT31;57848;51.938;15.520;2022-07-21T09:11:28;30.70;36.97
70421;SHT31;57848;51.938;15.520;2022-07-21T09:14:08;30.76;36.37
70421;SHT31;57848;51.938;15.520;2022-07-21T09:16:48;30.83;36.95
70421;SHT31;57848;51.938;15.520;2022-07-21T09:21:45;30.94;36.32
70421;SHT31;57848;51.938;15.520;2022-07-21T09:27:09;31.18;36.26
70421;SHT31;57848;51.938;15.520;2022-07-21T09:34:51;31.37;35.61
70421;SHT31;57848;51.938;15.520;2022-07-21T09:37:19;31.59;35.39
70421;SHT31;57848;51.938;15.520;2022-07-21T09:39:48;31.73;35.69
70421;SHT31;57848;51.938;15.520;2022-07-21T09:44:42;31.90;35.49
70421;SHT31;57848;51.938;15.520;2022-07-21T09:47:17;31.80;33.75
70421;SHT31;57848;51.938;15.520;2022-07-21T09:49:43;32.02;33.64
70421;SHT31;57848;51.938;15.520;2022-07-21T09:52:19;32.12;34.02
70421;SHT31;57848;51.938;15.520;2022-07-21T09:54:45;32.21;33.39
70421;SHT31;57848;51.938;15.520;2022-07-21T09:57:11;32.38;34.10
70421;SHT31;57848;51.938;15.520;2022-07-21T09:59:38;32.63;32.33
70421;SHT31;57848;51.938;15.520;2022-07-21T10:02:03;32.68;32.36
70421;SHT31;57848;51.938;15.520;2022-07-21T10:04:30;32.72;33.32
70421;SHT31;57848;51.938;15.520;2022-07-21T10:06:56;32.88;32.84
70421;SHT31;57848;51.938;15.520;2022-07-21T10:09:22;33.02;33.31
70421;SHT31;57848;51.938;15.520;2022-07-21T10:11:48;33.12;32.66
70421;SHT31;57848;51.938;15.520;2022-07-21T10:14:14;33.18;31.53
70421;SHT31;57848;51.938;15.520;2022-07-21T10:16:39;33.32;32.78
70421;SHT31;57848;51.938;15.520;2022-07-21T10:19:28;33.39;30.86
70421;SHT31;57848;51.938;15.520;2022-07-21T10:22:18;33.50;31.07
70421;SHT31;57848;51.938;15.520;2022-07-21T10:24:46;33.60;31.64
70421;SHT31;57848;51.938;15.520;2022-07-21T10:27:13;33.77;30.67
70421;SHT31;57848;51.938;15.520;2022-07-21T10:30:02;33.84;30.04
70421;SHT31;57848;51.938;15.520;2022-07-21T10:32:36;34.47;29.85
70421;SHT31;57848;51.938;15.520;2022-07-21T10:35:25;35.82;27.80
70421;SHT31;57848;51.938;15.520;2022-07-21T10:37:51;36.97;26.62
70421;SHT31;57848;51.938;15.520;2022-07-21T10:45:38;38.78;24.65
70421;SHT31;57848;51.938;15.520;2022-07-21T10:48:06;39.74;24.17
70421;SHT31;57848;51.938;15.520;2022-07-21T10:50:34;40.26;23.60
70421;SHT31;57848;51.938;15.520;2022-07-21T10:53:18;40.40;22.83
70421;SHT31;57848;51.938;15.520;2022-07-21T10:55:48;40.74;23.12
70421;SHT31;57848;51.938;15.520;2022-07-21T11:00:50;41.39;22.48
70421;SHT31;57848;51.938;15.520;2022-07-21T11:03:36;40.21;23.06
70421;SHT31;57848;51.938;15.520;2022-07-21T11:08:32;41.49;23.46
70421;SHT31;57848;51.938;15.520;2022-07-21T11:11:18;41.54;22.88
70421;SHT31;57848;51.938;15.520;2022-07-21T11:22:19;42.08;22.69
70421;SHT31;57848;51.938;15.520;2022-07-21T11:27:16;41.81;21.99
70421;SHT31;57848;51.938;15.520;2022-07-21T11:29:43;42.35;21.74
70421;SHT31;57848;51.938;15.520;2022-07-21T11:32:11;42.70;21.97
70421;SHT31;57848;51.938;15.520;2022-07-21T11:34:42;43.21;21.31
70421;SHT31;57848;51.938;15.520;2022-07-21T11:37:08;43.03;20.96
70421;SHT31;57848;51.938;15.520;2022-07-21T11:39:34;43.18;20.73
70421;SHT31;57848;51.938;15.520;2022-07-21T11:42:05;43.45;20.88
70421;SHT31;57848;51.938;15.520;2022-07-21T11:44:31;43.75;20.53
70421;SHT31;57848;51.938;15.520;2022-07-21T11:46:59;43.82;20.02
70421;SHT31;57848;51.938;15.520;2022-07-21T11:49:25;43.50;19.92
70421;SHT31;57848;51.938;15.520;2022-07-21T11:54:27;44.04;19.92
70421;SHT31;57848;51.938;15.520;2022-07-21T11:56:54;44.51;19.78
70421;SHT31;57848;51.938;15.520;2022-07-21T11:59:21;44.84;19.38
70421;SHT31;57848;51.938;15.520;2022-07-21T12:01:57;44.69;19.46
70421;SHT31;57848;51.938;15.520;2022-07-21T12:04:40;45.90;19.18
70421;SHT31;57848;51.938;15.520;2022-07-21T12:07:11;44.16;19.51
70421;SHT31;57848;51.938;15.520;2022-07-21T12:09:37;43.24;20.27
70421;SHT31;57848;51.938;15.520;2022-07-21T12:12:03;42.95;20.60
70421;SHT31;57848;51.938;15.520;2022-07-21T12:14:46;42.72;20.43
70421;SHT31;57848;51.938;15.520;2022-07-21T12:17:13;43.91;20.99
70421;SHT31;57848;51.938;15.520;2022-07-21T12:19:39;44.56;19.42
70421;SHT31;57848;51.938;15.520;2022-07-21T12:22:05;44.72;18.90
70421;SHT31;57848;51.938;15.520;2022-07-21T12:27:13;44.97;18.46
70421;SHT31;57848;51.938;15.520;2022-07-21T12:29:40;45.07;19.36
70421;SHT31;57848;51.938;15.520;2022-07-21T12:32:05;44.84;18.98
70421;SHT31;57848;51.938;15.520;2022-07-21T12:34:31;45.45;18.44
70421;SHT31;57848;51.938;15.520;2022-07-21T12:36:56;45.10;18.95
70421;SHT31;57848;51.938;15.520;2022-07-21T12:39:25;44.40;18.91
70421;SHT31;57848;51.938;15.520;2022-07-21T12:42:26;44.29;19.68
70421;SHT31;57848;51.938;15.520;2022-07-21T12:44:52;44.51;19.24
70421;SHT31;57848;51.938;15.520;2022-07-21T12:47:22;43.77;19.60
70421;SHT31;57848;51.938;15.520;2022-07-21T12:50:16;44.06;19.49
70421;SHT31;57848;51.938;15.520;2022-07-21T12:52:42;44.37;19.67
70421;SHT31;57848;51.938;15.520;2022-07-21T12:55:07;43.89;19.67
70421;SHT31;57848;51.938;15.520;2022-07-21T12:57:33;43.86;19.82
70421;SHT31;57848;51.938;15.520;2022-07-21T12:59:59;43.84;19.67
70421;SHT31;57848;51.938;15.520;2022-07-21T13:02:26;43.71;19.50
70421;SHT31;57848;51.938;15.520;2022-07-21T13:04:53;43.91;19.72
70421;SHT31;57848;51.938;15.520;2022-07-21T13:07:19;43.77;20.03
70421;SHT31;57848;51.938;15.520;2022-07-21T13:09:44;43.53;19.82
70421;SHT31;57848;51.938;15.520;2022-07-21T13:12:13;43.06;20.23
70421;SHT31;57848;51.938;15.520;2022-07-21T13:14:40;43.09;20.53
70421;SHT31;57848;51.938;15.520;2022-07-21T13:17:05;42.99;20.06
70421;SHT31;57848;51.938;15.520;2022-07-21T13:19:31;42.45;21.08
70421;SHT31;57848;51.938;15.520;2022-07-21T13:21:56;42.84;21.09
70421;SHT31;57848;51.938;15.520;2022-07-21T13:24:22;42.79;20.68
70421;SHT31;57848;51.938;15.520;2022-07-21T13:26:47;42.14;21.29
70421;SHT31;57848;51.938;15.520;2022-07-21T13:29:12;41.56;21.86
70421;SHT31;57848;51.938;15.520;2022-07-21T13:31:38;40.98;22.29
70421;SHT31;57848;51.938;15.520;2022-07-21T13:34:04;40.03;22.99
70421;SHT31;57848;51.938;15.520;2022-07-21T13:36:33;39.83;23.50
70421;SHT31;57848;51.938;15.520;2022-07-21T13:38:58;39.39;23.91
70421;SHT31;57848;51.938;15.520;2022-07-21T13:41:24;38.90;24.15
70421;SHT31;57848;51.938;15.520;2022-07-21T13:43:49;38.20;25.24
70421;SHT31;57848;51.938;15.520;2022-07-21T13:46:15;38.08;25.37
70421;SHT31;57848;51.938;15.520;2022-07-21T13:48:40;37.57;25.76
70421;SHT31;57848;51.938;15.520;2022-07-21T13:51:06;37.49;26.06
70421;SHT31;57848;51.938;15.520;2022-07-21T13:53:33;37.07;26.42
70421;SHT31;57848;51.938;15.520;2022-07-21T13:55:58;37.00;26.72
70421;SHT31;57848;51.938;15.520;2022-07-21T13:58:24;36.62;27.07
70421;SHT31;57848;51.938;15.520;2022-07-21T14:00:49;36.52;27.20
70421;SHT31;57848;51.938;15.520;2022-07-21T14:03:16;36.32;27.39
70421;SHT31;57848;51.938;15.520;2022-07-21T14:05:42;35.97;27.78
70421;SHT31;57848;51.938;15.520;2022-07-21T14:08:07;35.53;28.15
70421;SHT31;57848;51.938;15.520;2022-07-21T14:10:32;34.85;29.04
70421;SHT31;57848;51.938;15.520;2022-07-21T14:12:58;34.72;29.33
70421;SHT31;57848;51.938;15.520;2022-07-21T14:15:23;34.66;29.72
70421;SHT31;57848;51.938;15.520;2022-07-21T14:17:49;34.45;29.83
70421;SHT31;57848;51.938;15.520;2022-07-21T14:20:14;34.35;29.78
70421;SHT31;57848;51.938;15.520;2022-07-21T14:22:39;34.21;30.11
70421;SHT31;57848;51.938;15.520;2022-07-21T14:25:05;34.20;30.25
70421;SHT31;57848;51.938;15.520;2022-07-21T14:27:43;34.05;30.41
70421;SHT31;57848;51.938;15.520;2022-07-21T14:30:09;34.20;30.62
70421;SHT31;57848;51.938;15.520;2022-07-21T14:32:34;34.45;30.34
70421;SHT31;57848;51.938;15.520;2022-07-21T14:34:59;34.54;30.36
70421;SHT31;57848;51.938;15.520;2022-07-21T14:37:25;34.59;30.41
70421;SHT31;57848;51.938;15.520;2022-07-21T14:39:50;34.65;30.70
70421;SHT31;57848;51.938;15.520;2022-07-21T14:42:16;34.61;30.65
70421;SHT31;57848;51.938;15.520;2022-07-21T14:44:42;34.29;30.81
70421;SHT31;57848;51.938;15.520;2022-07-21T14:47:07;34.35;30.92
70421;SHT31;57848;51.938;15.520;2022-07-21T14:49:36;34.29;31.33
70421;SHT31;57848;51.938;15.520;2022-07-21T14:52:03;34.11;31.44
70421;SHT31;57848;51.938;15.520;2022-07-21T14:54:29;34.05;31.41
70421;SHT31;57848;51.938;15.520;2022-07-21T14:56:54;33.87;31.79
70421;SHT31;57848;51.938;15.520;2022-07-21T14:59:20;33.83;31.82
70421;SHT31;57848;51.938;15.520;2022-07-21T15:01:45;33.72;31.82
70421;SHT31;57848;51.938;15.520;2022-07-21T15:04:10;33.67;31.83
70421;SHT31;57848;51.938;15.520;2022-07-21T15:06:36;33.70;31.91
70421;SHT31;57848;51.938;15.520;2022-07-21T15:09:02;33.89;31.73
70421;SHT31;57848;51.938;15.520;2022-07-21T15:11:27;34.05;31.90
70421;SHT31;57848;51.938;15.520;2022-07-21T15:13:53;34.18;31.46
70421;SHT31;57848;51.938;15.520;2022-07-21T15:16:18;34.29;31.58
70421;SHT31;57848;51.938;15.520;2022-07-21T15:18:43;33.89;31.74
70421;SHT31;57848;51.938;15.520;2022-07-21T15:21:09;33.65;32.18
70421;SHT31;57848;51.938;15.520;2022-07-21T15:23:35;33.77;32.56
70421;SHT31;57848;51.938;15.520;2022-07-21T15:26:00;33.69;32.74
70421;SHT31;57848;51.938;15.520;2022-07-21T15:28:25;33.70;32.91
70421;SHT31;57848;51.938;15.520;2022-07-21T15:30:51;33.60;33.38
70421;SHT31;57848;51.938;15.520;2022-07-21T15:33:16;33.50;33.75
70421;SHT31;57848;51.938;15.520;2022-07-21T15:35:41;33.33;34.08
70421;SHT31;57848;51.938;15.520;2022-07-21T15:38:08;33.11;34.47
70421;SHT31;57848;51.938;15.520;2022-07-21T15:40:33;33.06;34.45
70421;SHT31;57848;51.938;15.520;2022-07-21T15:42:58;33.02;34.51
70421;SHT31;57848;51.938;15.520;2022-07-21T15:45:24;32.64;34.78
70421;SHT31;57848;51.938;15.520;2022-07-21T15:47:49;32.33;35.58
70421;SHT31;57848;51.938;15.520;2022-07-21T15:50:14;32.16;36.11
70421;SHT31;57848;51.938;15.520;2022-07-21T15:52:40;31.99;36.56